createdAt,value
2022-12-15T00:00:12.962Z,56.43
2022-12-15T00:02:58.782Z,59.60
2022-12-15T00:05:45.065Z,58.67
2022-12-15T00:08:36.472Z,55.83
2022-12-15T00:11:22.617Z,59.57
2022-12-15T00:14:08.824Z,54.27
2022-12-15T00:16:55.900Z,55.60
2022-12-15T00:19:42.052Z,55.67
2022-12-15T00:22:28.415Z,55.27
2022-12-15T00:25:14.503Z,54.33
2022-12-15T00:28:00.742Z,59.10
2022-12-15T00:30:49.862Z,55.23
2022-12-15T00:33:37.165Z,54.83
2022-12-15T00:36:23.651Z,56.57
2022-12-15T00:38:52.199Z,57.73
2022-12-15T00:41:20.346Z,51.23
2022-12-15T00:43:48.949Z,55.47
2022-12-15T00:46:34.990Z,60.70
2022-12-15T00:49:24.778Z,54.27
2022-12-15T00:52:11.081Z,51.87
2022-12-15T00:54:57.070Z,51.77
2022-12-15T00:57:43.354Z,57.30
2022-12-15T01:00:30.196Z,52.80
2022-12-15T01:03:16.196Z,55.17
2022-12-15T01:06:03.318Z,49.97
2022-12-15T01:08:50.664Z,53.17
2022-12-15T01:11:36.051Z,55.47
2022-12-15T01:14:22.447Z,51.30
2022-12-15T01:17:08.839Z,52.20
2022-12-15T01:19:54.643Z,56.07
2022-12-15T01:22:24.777Z,50.27
2022-12-15T01:24:53.240Z,52.27
2022-12-15T01:27:21.693Z,55.40
2022-12-15T01:29:50.142Z,54.57
2022-12-15T01:32:18.616Z,56.53
2022-12-15T01:34:47.013Z,53.00
2022-12-15T01:37:15.865Z,62.60
2022-12-15T01:40:03.021Z,52.23
2022-12-15T01:42:31.809Z,48.63
2022-12-15T01:45:33.743Z,46.10
2022-12-15T01:48:06.058Z,51.17
2022-12-15T01:50:38.610Z,51.07
2022-12-15T01:53:07.238Z,50.27
2022-12-15T01:55:37.807Z,54.60
2022-12-15T01:58:09.176Z,49.33
2022-12-15T02:00:37.784Z,49.27
2022-12-15T02:03:08.106Z,51.10
2022-12-15T02:05:37.127Z,52.30
2022-12-15T02:08:06.086Z,53.77
2022-12-15T02:10:48.451Z,47.63
2022-12-15T02:13:24.605Z,52.80
2022-12-15T02:16:00.718Z,54.50
2022-12-15T02:18:36.360Z,52.63
2022-12-15T02:21:11.204Z,49.53
2022-12-15T02:24:30.137Z,52.10
2022-12-15T02:27:35.407Z,54.43
2022-12-15T02:30:35.358Z,53.03
2022-12-15T02:33:13.228Z,53.33
2022-12-15T02:35:53.702Z,52.57
2022-12-15T02:38:31.268Z,54.90
2022-12-15T02:41:01.113Z,56.03
2022-12-15T02:43:31.385Z,49.70
2022-12-15T02:46:16.786Z,52.57
2022-12-15T02:49:00.197Z,47.67
2022-12-15T02:51:45.194Z,49.67
2022-12-15T02:54:29.276Z,47.97
2022-12-15T02:57:06.098Z,57.17
2022-12-15T02:59:43.332Z,55.33
2022-12-15T03:02:16.054Z,58.27
2022-12-15T03:04:45.588Z,52.23
2022-12-15T03:07:15.640Z,53.10
2022-12-15T03:09:44.197Z,53.37
2022-12-15T03:12:12.625Z,54.50
2022-12-15T03:14:40.822Z,53.07
2022-12-15T03:17:08.900Z,52.60
2022-12-15T03:19:38.404Z,50.67
2022-12-15T03:22:06.776Z,48.73
2022-12-15T03:24:35.263Z,52.57
2022-12-15T03:27:03.884Z,48.07
2022-12-15T03:29:32.169Z,47.27
2022-12-15T03:32:00.632Z,53.63
2022-12-15T03:34:28.880Z,47.63
2022-12-15T03:36:59.270Z,50.17
2022-12-15T03:39:27.833Z,47.60
2022-12-15T03:41:56.210Z,47.57
2022-12-15T03:44:24.333Z,46.97
2022-12-15T03:46:52.755Z,49.60
2022-12-15T03:49:20.868Z,50.40
2022-12-15T03:51:49.245Z,48.07
2022-12-15T03:54:18.791Z,48.57
2022-12-15T03:56:47.189Z,52.27
2022-12-15T03:59:15.941Z,44.57
2022-12-15T04:01:48.314Z,48.27
2022-12-15T04:04:16.919Z,50.20
2022-12-15T04:06:45.326Z,47.87
2022-12-15T04:09:13.846Z,46.63
2022-12-15T04:11:44.363Z,50.00
2022-12-15T04:14:12.884Z,54.57
2022-12-15T04:16:41.036Z,46.87
2022-12-15T04:19:27.029Z,48.33
2022-12-15T04:21:56.153Z,48.07
2022-12-15T04:24:42.429Z,50.57
2022-12-15T04:27:29.622Z,52.63
2022-12-15T04:30:15.612Z,44.70
2022-12-15T04:33:01.561Z,48.20
2022-12-15T04:35:49.957Z,50.10
2022-12-15T04:38:35.938Z,47.83
2022-12-15T04:41:21.494Z,51.43
2022-12-15T04:44:09.021Z,52.70
2022-12-15T04:46:54.714Z,56.33
2022-12-15T04:49:40.281Z,65.57
2022-12-15T04:52:26.413Z,57.00
2022-12-15T04:55:12.586Z,58.33
2022-12-15T04:57:58.929Z,60.63
2022-12-15T05:00:45.697Z,58.43
2022-12-15T05:03:32.562Z,64.40
2022-12-15T05:06:18.918Z,57.03
2022-12-15T05:09:04.822Z,60.20
2022-12-15T05:11:50.998Z,57.77
2022-12-15T05:14:36.921Z,54.67
2022-12-15T05:17:24.799Z,51.93
2022-12-15T05:20:11.111Z,60.30
2022-12-15T05:22:57.243Z,60.23
2022-12-15T05:25:43.109Z,56.10
2022-12-15T05:28:29.198Z,61.93
2022-12-15T05:31:15.194Z,61.80
2022-12-15T05:33:44.837Z,62.50
2022-12-15T05:36:13.214Z,60.83
2022-12-15T05:38:41.784Z,58.60
2022-12-15T05:41:10.361Z,64.87
2022-12-15T05:43:38.906Z,65.40
2022-12-15T05:46:07.487Z,60.80
2022-12-15T05:48:36.296Z,63.27
2022-12-15T05:51:07.528Z,73.50
2022-12-15T05:53:36.249Z,59.80
2022-12-15T05:56:05.166Z,72.23
2022-12-15T05:58:33.873Z,67.77
2022-12-15T06:01:06.527Z,68.67
2022-12-15T06:03:35.136Z,68.47
2022-12-15T06:06:03.993Z,64.93
2022-12-15T06:08:35.179Z,73.27
2022-12-15T06:11:04.046Z,68.60
2022-12-15T06:13:34.856Z,71.70
2022-12-15T06:16:05.764Z,78.30
2022-12-15T06:18:36.217Z,71.27
2022-12-15T06:21:07.126Z,83.03
2022-12-15T06:23:37.475Z,67.30
2022-12-15T06:26:11.184Z,69.13
2022-12-15T06:28:39.793Z,72.57
2022-12-15T06:31:09.849Z,76.77
2022-12-15T06:33:38.770Z,75.90
2022-12-15T06:36:08.765Z,67.57
2022-12-15T06:38:38.617Z,71.60
2022-12-15T06:41:08.250Z,71.13
2022-12-15T06:43:36.712Z,75.40
2022-12-15T06:46:05.621Z,75.10
2022-12-15T06:48:34.347Z,72.83
2022-12-15T06:51:05.052Z,80.93
2022-12-15T06:53:34.192Z,73.03
2022-12-15T06:56:04.819Z,76.70
2022-12-15T06:58:33.356Z,74.87
2022-12-15T07:01:07.906Z,72.23
2022-12-15T07:03:37.521Z,77.83
2022-12-15T07:06:08.299Z,76.93
2022-12-15T07:08:41.335Z,75.77
2022-12-15T07:11:13.759Z,73.63
2022-12-15T07:13:42.611Z,72.97
2022-12-15T07:16:12.450Z,75.50
2022-12-15T07:18:41.306Z,83.67
2022-12-15T07:21:10.846Z,88.17
2022-12-15T07:23:54.073Z,95.57
2022-12-15T07:26:24.866Z,85.20
2022-12-15T07:28:53.735Z,82.93
2022-12-15T07:31:23.014Z,95.47
2022-12-15T07:33:52.773Z,83.90
2022-12-15T07:36:21.617Z,83.47
2022-12-15T07:38:50.996Z,93.70
2022-12-15T07:41:21.035Z,85.30
2022-12-15T07:43:50.469Z,89.23
2022-12-15T07:46:19.378Z,77.60
2022-12-15T07:48:48.289Z,85.23
2022-12-15T07:51:21.325Z,91.20
2022-12-15T07:53:51.197Z,97.70
2022-12-15T07:56:20.495Z,95.30
2022-12-15T07:58:50.132Z,86.77
2022-12-15T08:01:19.418Z,91.90
2022-12-15T08:03:48.308Z,94.17
2022-12-15T08:06:16.923Z,85.63
2022-12-15T08:08:50.766Z,86.60
2022-12-15T08:11:21.855Z,84.83
2022-12-15T08:14:10.534Z,87.07
2022-12-15T08:16:40.035Z,81.87
2022-12-15T08:19:11.854Z,82.00
2022-12-15T08:21:41.353Z,82.23
2022-12-15T08:24:09.872Z,78.53
2022-12-15T08:26:39.154Z,82.70
2022-12-15T08:29:49.105Z,79.03
2022-12-15T08:32:00.200Z,78.60
2022-12-15T08:34:28.473Z,90.60
2022-12-15T08:36:56.948Z,89.20
2022-12-15T08:39:25.433Z,87.30
2022-12-15T08:41:53.745Z,81.30
2022-12-15T08:44:23.552Z,88.77
2022-12-15T08:46:52.390Z,93.53
2022-12-15T08:49:22.283Z,85.07
2022-12-15T08:51:51.585Z,81.57
2022-12-15T08:54:21.496Z,80.47
2022-12-15T08:56:52.261Z,80.53
2022-12-15T08:59:20.728Z,90.23
2022-12-15T09:01:50.694Z,90.00
2022-12-15T09:04:19.148Z,83.97
2022-12-15T09:06:50.491Z,78.70
2022-12-15T09:09:20.110Z,86.63
2022-12-15T09:11:48.537Z,79.10
2022-12-15T09:14:17.220Z,75.17
2022-12-15T09:16:45.872Z,75.00
2022-12-15T09:19:20.362Z,81.60
2022-12-15T09:21:49.580Z,79.50
2022-12-15T09:24:28.720Z,82.40
2022-12-15T09:27:01.010Z,87.17
2022-12-15T09:29:29.156Z,85.47
2022-12-15T09:31:57.409Z,82.23
2022-12-15T09:34:31.130Z,77.97
2022-12-15T09:36:59.596Z,78.53
2022-12-15T09:39:27.881Z,86.00
2022-12-15T09:41:59.687Z,79.67
2022-12-15T09:44:30.885Z,78.27
2022-12-15T09:47:13.144Z,81.13
2022-12-15T09:49:53.641Z,81.23
2022-12-15T09:52:24.869Z,79.40
2022-12-15T09:54:55.716Z,72.37
2022-12-15T09:57:32.629Z,73.47
2022-12-15T10:00:15.494Z,67.47
2022-12-15T10:03:31.165Z,70.07
2022-12-15T10:06:20.117Z,69.53
2022-12-15T10:08:55.236Z,60.20
2022-12-15T10:11:36.927Z,64.57
2022-12-15T10:14:14.383Z,63.57
2022-12-15T10:16:52.734Z,66.87
2022-12-15T10:19:27.858Z,56.60
2022-12-15T10:21:58.310Z,62.63
2022-12-15T10:25:07.913Z,69.10
2022-12-15T10:27:31.354Z,67.63
2022-12-15T10:30:02.842Z,72.77
2022-12-15T10:32:43.862Z,77.40
2022-12-15T10:35:17.039Z,71.67
2022-12-15T10:37:47.013Z,74.60
2022-12-15T10:40:21.592Z,75.90
2022-12-15T10:42:51.920Z,56.33
2022-12-15T10:45:35.771Z,71.00
2022-12-15T10:48:06.695Z,88.60
2022-12-15T10:50:35.592Z,75.47
2022-12-15T10:53:09.678Z,80.60
2022-12-15T10:55:40.407Z,73.87
2022-12-15T10:58:18.951Z,74.20
2022-12-15T11:00:50.820Z,74.87
2022-12-15T11:03:25.119Z,81.77
2022-12-15T11:05:54.459Z,75.53
2022-12-15T11:08:25.941Z,83.10
2022-12-15T11:11:19.135Z,91.27
2022-12-15T11:14:07.572Z,70.70
2022-12-15T11:16:36.301Z,85.90
2022-12-15T11:19:12.433Z,87.30
2022-12-15T11:21:46.064Z,89.70
2022-12-15T11:24:26.122Z,65.57
2022-12-15T11:26:59.342Z,85.97
2022-12-15T11:29:34.749Z,80.70
2022-12-15T11:32:07.315Z,68.63
2022-12-15T11:34:40.116Z,70.13
2022-12-15T11:37:24.060Z,76.07
2022-12-15T11:40:06.796Z,78.60
2022-12-15T11:42:48.903Z,89.40
2022-12-15T11:45:23.884Z,88.30
2022-12-15T11:47:57.030Z,91.07
2022-12-15T11:50:31.567Z,99.13
2022-12-15T11:53:16.169Z,93.07
2022-12-15T11:55:54.246Z,97.40
2022-12-15T11:58:51.948Z,83.63
2022-12-15T12:01:36.829Z,79.87
2022-12-15T12:04:17.709Z,84.87
2022-12-15T12:06:55.776Z,83.40
2022-12-15T12:09:30.730Z,89.70
2022-12-15T12:12:11.945Z,85.03
2022-12-15T12:14:52.281Z,89.83
2022-12-15T12:17:32.415Z,80.63
2022-12-15T12:20:11.214Z,83.93
2022-12-15T12:22:43.853Z,89.27
2022-12-15T12:25:16.014Z,81.40
2022-12-15T12:27:53.122Z,79.63
2022-12-15T12:30:23.440Z,86.90
2022-12-15T12:32:59.719Z,95.23
2022-12-15T12:35:37.558Z,85.53
2022-12-15T12:38:06.947Z,95.73
2022-12-15T12:40:50.312Z,99.70
2022-12-15T12:43:33.311Z,79.83
2022-12-15T12:46:09.021Z,89.67
2022-12-15T12:48:42.883Z,97.93
2022-12-15T12:51:21.257Z,94.93
2022-12-15T12:53:50.379Z,93.37
2022-12-15T12:56:41.692Z,103.07
2022-12-15T12:59:39.994Z,91.43
2022-12-15T13:02:46.639Z,92.53
2022-12-15T13:05:27.803Z,88.73
2022-12-15T13:07:57.933Z,84.47
2022-12-15T13:10:27.162Z,81.10
2022-12-15T13:12:59.133Z,87.30
2022-12-15T13:15:42.487Z,93.53
2022-12-15T13:18:18.019Z,90.90
2022-12-15T13:20:50.712Z,90.07
2022-12-15T13:23:50.388Z,88.23
2022-12-15T13:26:20.941Z,94.77
2022-12-15T13:28:58.229Z,87.87
2022-12-15T13:31:43.446Z,82.10
2022-12-15T13:34:18.740Z,76.10
2022-12-15T13:36:55.173Z,78.60
2022-12-15T13:39:36.449Z,71.93
2022-12-15T13:42:45.338Z,76.53
2022-12-15T13:48:43.830Z,60.07
2022-12-15T13:51:25.331Z,66.47
2022-12-15T13:53:59.461Z,56.67
2022-12-15T13:56:41.159Z,66.47
2022-12-15T13:59:19.794Z,60.77
2022-12-15T14:01:52.781Z,69.20
2022-12-15T14:04:23.726Z,61.17
2022-12-15T14:06:54.873Z,73.90
2022-12-15T14:09:28.438Z,67.80
2022-12-15T14:11:57.027Z,69.07
2022-12-15T14:14:28.505Z,70.63
2022-12-15T14:17:02.614Z,59.77
2022-12-15T14:19:42.822Z,68.63
2022-12-15T14:22:28.271Z,65.80
2022-12-15T14:25:02.837Z,66.13
2022-12-15T14:27:33.413Z,64.07
2022-12-15T14:30:23.473Z,65.30
2022-12-15T14:32:55.973Z,61.47
2022-12-15T14:35:31.118Z,58.77
2022-12-15T14:38:02.788Z,72.57
2022-12-15T14:40:31.861Z,72.70
2022-12-15T14:43:00.407Z,66.63
2022-12-15T14:45:32.160Z,82.47
2022-12-15T14:48:39.643Z,79.80
2022-12-15T14:50:52.982Z,75.83
2022-12-15T14:53:23.425Z,80.73
2022-12-15T14:55:52.012Z,75.43
2022-12-15T14:58:33.903Z,83.27
2022-12-15T15:01:03.934Z,82.63
2022-12-15T15:03:12.028Z,59.90
2022-12-15T15:03:38.465Z,79.53
2022-12-15T15:06:19.139Z,80.80
2022-12-15T15:08:50.169Z,86.60
2022-12-15T15:11:29.796Z,77.33
2022-12-15T15:14:01.213Z,84.77
2022-12-15T15:16:29.961Z,81.40
2022-12-15T15:19:00.780Z,91.40
2022-12-15T15:21:35.349Z,85.17
2022-12-15T15:24:05.820Z,82.20
2022-12-15T15:26:34.577Z,79.67
2022-12-15T15:29:03.399Z,93.03
2022-12-15T15:31:41.475Z,85.23
2022-12-15T15:34:11.903Z,84.93
2022-12-15T15:36:41.747Z,85.33
2022-12-15T15:39:16.287Z,82.77
2022-12-15T15:41:44.767Z,82.47
2022-12-15T15:44:14.912Z,83.50
2022-12-15T15:46:47.810Z,87.17
2022-12-15T15:49:19.265Z,80.70
2022-12-15T15:51:49.457Z,77.07
2022-12-15T15:54:19.616Z,90.73
2022-12-15T15:56:47.786Z,84.80
2022-12-15T15:59:18.311Z,73.57
2022-12-15T16:01:49.179Z,79.33
2022-12-15T16:04:17.581Z,86.03
2022-12-15T16:06:47.771Z,95.33
2022-12-15T16:09:17.970Z,88.67
2022-12-15T16:11:47.554Z,89.17
2022-12-15T16:14:17.655Z,90.73
2022-12-15T16:16:46.306Z,85.70
2022-12-15T16:19:14.545Z,92.03
2022-12-15T16:21:44.053Z,86.17
2022-12-15T16:24:17.065Z,78.63
2022-12-15T16:26:50.016Z,86.03
2022-12-15T16:29:20.467Z,77.20
2022-12-15T16:31:48.905Z,78.30
2022-12-15T16:34:17.722Z,69.53
2022-12-15T16:36:46.810Z,76.67
2022-12-15T16:39:26.553Z,75.37
2022-12-15T16:41:57.344Z,78.63
2022-12-15T16:44:26.634Z,83.30
2022-12-15T16:46:54.894Z,82.73
2022-12-15T16:49:23.579Z,81.70
2022-12-15T16:51:53.691Z,76.63
2022-12-15T16:54:25.389Z,82.77
2022-12-15T16:56:55.390Z,90.50
2022-12-15T16:59:34.923Z,86.17
2022-12-15T17:02:21.119Z,87.83
2022-12-15T17:04:50.338Z,76.43
2022-12-15T17:07:20.520Z,81.37
2022-12-15T17:09:50.939Z,83.93
2022-12-15T17:12:20.754Z,84.77
2022-12-15T17:14:49.139Z,86.33
2022-12-15T17:17:19.368Z,94.93
2022-12-15T17:20:19.722Z,94.00
2022-12-15T17:22:38.293Z,84.73
2022-12-15T17:25:07.686Z,97.93
2022-12-15T17:27:37.318Z,95.93
2022-12-15T17:30:06.379Z,101.90
2022-12-15T17:32:34.677Z,101.83
2022-12-15T17:35:03.276Z,95.50
2022-12-15T17:37:35.269Z,94.47
2022-12-15T17:40:04.834Z,96.37
2022-12-15T17:42:33.026Z,103.07
2022-12-15T17:45:02.798Z,107.03
2022-12-15T17:47:31.151Z,105.87
2022-12-15T17:49:59.894Z,109.63
2022-12-15T17:52:30.283Z,105.63
2022-12-15T17:54:58.863Z,100.37
2022-12-15T17:57:27.476Z,97.17
2022-12-15T17:59:55.881Z,101.23
2022-12-15T18:02:25.651Z,101.60
2022-12-15T18:04:55.333Z,95.90
2022-12-15T18:07:24.988Z,93.17
2022-12-15T18:09:54.147Z,88.97
2022-12-15T18:12:24.811Z,91.87
2022-12-15T18:14:53.767Z,91.03
2022-12-15T18:17:22.634Z,87.57
2022-12-15T18:19:52.348Z,89.67
2022-12-15T18:22:23.571Z,90.53
2022-12-15T18:24:53.787Z,92.97
2022-12-15T18:27:24.761Z,86.33
2022-12-15T18:29:53.467Z,80.47
2022-12-15T18:32:27.009Z,74.57
2022-12-15T18:34:57.029Z,68.83
2022-12-15T18:37:25.872Z,70.07
2022-12-15T18:39:57.115Z,72.93
2022-12-15T18:42:30.920Z,72.97
2022-12-15T18:45:00.577Z,73.10
2022-12-15T18:47:28.883Z,76.30
2022-12-15T18:50:00.382Z,66.60
2022-12-15T18:52:34.262Z,63.80
2022-12-15T18:55:03.067Z,70.83
2022-12-15T18:57:33.417Z,66.93
2022-12-15T19:00:07.970Z,68.90
2022-12-15T19:02:36.357Z,72.03
2022-12-15T19:05:07.078Z,62.40
2022-12-15T19:07:37.132Z,67.77
2022-12-15T19:10:05.960Z,71.37
2022-12-15T19:12:34.354Z,71.53
2022-12-15T19:15:02.654Z,71.83
2022-12-15T19:17:48.298Z,71.53
2022-12-15T19:20:38.397Z,71.33
2022-12-15T19:23:07.197Z,78.30
2022-12-15T19:25:36.355Z,76.73
2022-12-15T19:28:05.218Z,69.63
2022-12-15T19:30:40.236Z,71.83
2022-12-15T19:33:09.981Z,73.90
2022-12-15T19:35:40.575Z,73.30
2022-12-15T19:38:11.627Z,74.13
2022-12-15T19:40:40.591Z,63.17
2022-12-15T19:43:14.207Z,65.87
2022-12-15T19:45:42.565Z,61.77
2022-12-15T19:48:12.191Z,69.60
2022-12-15T19:50:43.447Z,70.53
2022-12-15T19:53:17.503Z,64.47
2022-12-15T19:55:46.782Z,63.27
2022-12-15T19:58:29.722Z,68.43
2022-12-15T20:00:59.485Z,65.53
2022-12-15T20:03:28.752Z,63.83
2022-12-15T20:05:59.989Z,69.50
2022-12-15T20:08:33.871Z,68.00
2022-12-15T20:11:02.122Z,67.33
2022-12-15T20:13:30.938Z,60.97
2022-12-15T20:15:59.436Z,64.70
2022-12-15T20:18:27.597Z,58.97
2022-12-15T20:20:55.859Z,66.20
2022-12-15T20:23:27.396Z,59.10
2022-12-15T20:25:56.311Z,56.07
2022-12-15T20:28:28.057Z,59.77
2022-12-15T20:30:57.262Z,59.23
2022-12-15T20:33:25.890Z,58.10
2022-12-15T20:35:55.013Z,54.43
2022-12-15T20:38:31.829Z,54.40
2022-12-15T20:41:01.137Z,55.77
2022-12-15T20:43:32.349Z,62.40
2022-12-15T20:46:05.112Z,60.30
2022-12-15T20:48:34.869Z,54.13
2022-12-15T20:51:08.834Z,54.37
2022-12-15T20:53:40.044Z,60.03
2022-12-15T20:56:09.309Z,61.33
2022-12-15T20:58:40.550Z,57.03
2022-12-15T21:01:22.504Z,58.80
2022-12-15T21:03:52.960Z,65.47
2022-12-15T21:06:21.917Z,58.73
2022-12-15T21:09:41.777Z,67.47
2022-12-15T21:12:25.881Z,62.37
2022-12-15T21:14:54.831Z,63.73
2022-12-15T21:17:25.699Z,67.47
2022-12-15T21:19:54.929Z,68.60
2022-12-15T21:22:25.606Z,70.67
2022-12-15T21:24:55.998Z,72.13
2022-12-15T21:27:26.343Z,68.13
2022-12-15T21:29:54.435Z,66.30
2022-12-15T21:35:49.466Z,66.20
2022-12-15T21:38:31.305Z,73.67
2022-12-15T21:41:03.238Z,61.90
2022-12-15T21:43:36.575Z,71.33
2022-12-15T21:46:14.447Z,73.50
2022-12-15T21:49:00.952Z,71.20
2022-12-15T21:51:32.504Z,74.10
2022-12-15T21:54:01.586Z,67.70
2022-12-15T21:56:30.338Z,73.10
2022-12-15T21:59:00.625Z,66.17
2022-12-15T22:01:30.786Z,72.57
2022-12-15T22:04:02.877Z,75.43
2022-12-15T22:06:31.491Z,78.43
2022-12-15T22:09:00.136Z,77.37
2022-12-15T22:11:29.680Z,77.83
2022-12-15T22:14:02.786Z,77.33
2022-12-15T22:16:31.597Z,72.60
2022-12-15T22:18:59.875Z,68.67
2022-12-15T22:21:28.433Z,78.67
2022-12-15T22:23:56.628Z,80.00
2022-12-15T22:26:29.841Z,82.60
2022-12-15T22:29:01.431Z,74.90
2022-12-15T22:31:30.298Z,78.63
2022-12-15T22:33:59.419Z,82.17
2022-12-15T22:36:28.806Z,86.13
2022-12-15T22:38:57.463Z,81.80
2022-12-15T22:41:26.438Z,89.47
2022-12-15T22:43:56.507Z,91.63
2022-12-15T22:46:26.386Z,89.53
2022-12-15T22:48:55.095Z,84.17
2022-12-15T22:51:23.486Z,78.27
2022-12-15T22:53:51.650Z,88.13
2022-12-15T22:56:27.025Z,84.37
2022-12-15T22:59:00.825Z,83.13
2022-12-15T23:01:31.201Z,99.63
2022-12-15T23:04:00.366Z,101.10
2022-12-15T23:06:29.429Z,97.87
2022-12-15T23:08:57.688Z,92.43
2022-12-15T23:11:41.457Z,92.10
2022-12-15T23:14:12.312Z,103.43
2022-12-15T23:16:42.033Z,108.10
2022-12-15T23:19:23.824Z,100.03
2022-12-15T23:21:52.632Z,109.17
2022-12-15T23:24:20.815Z,103.83
2022-12-15T23:26:49.093Z,98.50
2022-12-15T23:29:17.612Z,118.77
2022-12-15T23:31:47.492Z,94.20
2022-12-15T23:34:15.749Z,109.33
2022-12-15T23:36:43.927Z,107.37
2022-12-15T23:39:12.158Z,103.00
2022-12-15T23:41:41.424Z,100.43
2022-12-15T23:44:09.577Z,107.27
2022-12-15T23:46:37.790Z,103.10
2022-12-15T23:49:07.958Z,109.87
2022-12-15T23:51:36.140Z,104.07
2022-12-15T23:54:04.254Z,109.57
2022-12-15T23:56:32.413Z,110.30
2022-12-15T23:59:01.076Z,98.23
